Ackworth, Iowa
Current Conditions -  °F | °C
As of 1:54 AM on Tuesday 27 Jan 2015 (Local Time) from KDSM Reporting Station
Overcast Overcast  
Wind Chill: -1°   Ceiling: 1900
Heat Index:   Visibility: 10mi
Dew Point: -1°   Wind: 8mph
Humidity: 79%   Direction: 310°NW
Pressure: 30.04"   Gusts: NA
Location:  41.37°N, 93.47°W
Report Text: KDSM 270754Z 31007KT 10SM OVC019 03/M01 A3004 RMK AO2 SLP177 T00281006
Loading
Personal Weather Stations






























Interactive Weather Map New forecast layout! Learn more

10-Day Weather Forecast

Advertisements
Track Severe Weather on mobile